createdAt,value
2022-09-21T00:01:47.484Z,100.00
2022-09-21T00:04:14.545Z,100.00
2022-09-21T00:06:41.334Z,100.00
2022-09-21T00:09:09.461Z,100.00
2022-09-21T00:11:37.023Z,100.00
2022-09-21T00:16:48.676Z,100.00
2022-09-21T00:19:16.850Z,100.00
2022-09-21T00:21:47.532Z,100.00
2022-09-21T00:24:14.625Z,100.00
2022-09-21T00:26:41.371Z,100.00
2022-09-21T00:29:08.404Z,100.00
2022-09-21T00:31:35.543Z,100.00
2022-09-21T00:34:03.706Z,100.00
2022-09-21T00:36:30.520Z,100.00
2022-09-21T00:38:59.216Z,100.00
2022-09-21T00:41:35.329Z,100.00
2022-09-21T00:44:25.568Z,100.00
2022-09-21T00:46:55.783Z,100.00
2022-09-21T00:49:23.285Z,100.00
2022-09-21T00:51:51.274Z,100.00
2022-09-21T00:54:23.639Z,100.00
2022-09-21T00:56:51.095Z,100.00
2022-09-21T00:59:21.078Z,100.00
2022-09-21T01:01:48.499Z,100.00
2022-09-21T01:04:16.857Z,100.00
2022-09-21T01:06:43.530Z,100.00
2022-09-21T01:09:10.344Z,100.00
2022-09-21T01:11:43.074Z,100.00
2022-09-21T01:14:20.105Z,100.00
2022-09-21T01:16:56.200Z,100.00
2022-09-21T01:19:57.933Z,100.00
2022-09-21T01:22:46.472Z,100.00
2022-09-21T01:25:53.868Z,100.00
2022-09-21T01:28:23.367Z,100.00
2022-09-21T01:30:51.903Z,100.00
2022-09-21T01:33:30.274Z,100.00
2022-09-21T01:36:00.233Z,100.00
2022-09-21T01:38:32.431Z,100.00
2022-09-21T01:41:03.594Z,100.00
2022-09-21T01:43:40.805Z,100.00
2022-09-21T01:52:20.451Z,100.00
2022-09-21T01:57:53.974Z,100.00
2022-09-21T02:00:20.727Z,100.00
2022-09-21T02:05:42.572Z,100.00
2022-09-21T02:08:10.343Z,100.00
2022-09-21T02:10:40.089Z,100.00
2022-09-21T02:13:07.138Z,100.00
2022-09-21T02:15:51.396Z,100.00
2022-09-21T02:19:02.637Z,100.00
2022-09-21T02:21:47.526Z,100.00
2022-09-21T02:24:32.123Z,100.00
2022-09-21T02:27:03.891Z,100.00
2022-09-21T02:29:47.890Z,100.00
2022-09-21T02:32:50.360Z,100.00
2022-09-21T02:35:28.345Z,100.00
2022-09-21T02:38:03.120Z,100.00
2022-09-21T02:40:35.178Z,100.00
2022-09-21T02:43:06.324Z,100.00
2022-09-21T02:45:37.607Z,100.00
2022-09-21T02:48:14.585Z,100.00
2022-09-21T02:50:47.139Z,100.00
2022-09-21T02:53:16.281Z,100.00
2022-09-21T02:55:44.808Z,100.00
2022-09-21T02:58:14.330Z,100.00
2022-09-21T03:00:48.575Z,100.00
2022-09-21T03:03:17.582Z,100.00
2022-09-21T03:05:45.850Z,100.00
2022-09-21T03:08:12.324Z,100.00
2022-09-21T03:10:40.319Z,100.00
2022-09-21T03:15:49.809Z,100.00
2022-09-21T03:21:03.020Z,100.00
2022-09-21T03:23:29.838Z,100.00
2022-09-21T03:25:56.413Z,100.00
2022-09-21T03:28:23.647Z,100.00
2022-09-21T03:30:51.414Z,100.00
2022-09-21T03:33:19.252Z,100.00
2022-09-21T03:35:47.897Z,100.00
2022-09-21T03:38:30.186Z,100.00
2022-09-21T03:40:57.917Z,100.00
2022-09-21T03:43:24.790Z,100.00
2022-09-21T03:48:32.677Z,100.00
2022-09-21T03:50:59.357Z,100.00
2022-09-21T03:53:25.855Z,100.00
2022-09-21T03:55:52.312Z,100.00
2022-09-21T03:58:19.048Z,100.00
2022-09-21T04:00:46.370Z,100.00
2022-09-21T04:03:12.823Z,100.00
2022-09-21T04:05:39.315Z,100.00
2022-09-21T04:08:05.811Z,100.00
2022-09-21T04:10:35.191Z,100.00
2022-09-21T04:13:02.582Z,100.00
2022-09-21T04:15:29.817Z,100.00
2022-09-21T04:17:56.518Z,100.00
2022-09-21T04:20:24.037Z,100.00
2022-09-21T04:22:51.515Z,100.00
2022-09-21T04:25:18.129Z,100.00
2022-09-21T04:27:44.618Z,100.00
2022-09-21T04:30:13.172Z,100.00
2022-09-21T04:32:40.429Z,100.00
2022-09-21T04:35:07.373Z,100.00
2022-09-21T04:37:42.056Z,100.00
2022-09-21T04:40:09.594Z,100.00
2022-09-21T04:42:36.389Z,100.00
2022-09-21T04:45:03.217Z,100.00
2022-09-21T04:47:30.962Z,100.00
2022-09-21T04:49:57.775Z,100.00
2022-09-21T04:52:24.426Z,100.00
2022-09-21T04:57:35.829Z,100.00
2022-09-21T05:00:09.791Z,100.00
2022-09-21T05:02:36.326Z,100.00
2022-09-21T05:05:02.846Z,100.00
2022-09-21T05:07:29.578Z,100.00
2022-09-21T05:10:05.071Z,100.00
2022-09-21T05:12:32.814Z,100.00
2022-09-21T05:14:59.544Z,100.00
2022-09-21T05:17:26.260Z,100.00
2022-09-21T05:19:55.974Z,100.00
2022-09-21T05:22:22.785Z,100.00
2022-09-21T05:27:36.375Z,100.00
2022-09-21T05:30:04.291Z,100.00
2022-09-21T05:32:49.169Z,100.00
2022-09-21T05:35:47.582Z,100.00
2022-09-21T05:38:18.304Z,100.00
2022-09-21T05:40:46.583Z,100.00
2022-09-21T05:43:13.651Z,100.00
2022-09-21T05:45:47.588Z,100.00
2022-09-21T05:48:35.206Z,100.00
2022-09-21T05:51:05.227Z,100.00
2022-09-21T05:53:41.609Z,100.00
2022-09-21T05:56:35.433Z,100.00
2022-09-21T05:59:04.874Z,100.00
2022-09-21T06:02:17.027Z,100.00
2022-09-21T06:04:43.833Z,100.00
2022-09-21T06:07:10.286Z,100.00
2022-09-21T06:09:41.171Z,100.00
2022-09-21T06:12:11.390Z,100.00
2022-09-21T06:17:20.497Z,100.00
2022-09-21T06:19:47.013Z,100.00
2022-09-21T06:27:36.419Z,100.00
2022-09-21T06:30:03.166Z,100.00
2022-09-21T06:32:30.056Z,100.00
2022-09-21T06:34:56.562Z,100.00
2022-09-21T06:37:23.054Z,100.00
2022-09-21T06:39:49.799Z,100.00
2022-09-21T06:42:18.257Z,100.00
2022-09-21T06:44:44.797Z,100.00
2022-09-21T06:47:11.255Z,100.00
2022-09-21T06:49:42.251Z,100.00
2022-09-21T06:52:09.119Z,100.00
2022-09-21T06:54:41.562Z,100.00
2022-09-21T06:57:08.213Z,100.00
2022-09-21T06:59:34.905Z,100.00
2022-09-21T07:02:01.801Z,100.00
2022-09-21T07:04:29.545Z,100.00
2022-09-21T07:06:56.071Z,100.00
2022-09-21T07:12:09.124Z,100.00
2022-09-21T07:14:35.834Z,100.00
2022-09-21T07:17:02.484Z,100.00
2022-09-21T07:19:28.995Z,100.00
2022-09-21T07:21:55.821Z,100.00
2022-09-21T07:24:22.321Z,100.00
2022-09-21T07:26:49.466Z,100.00
2022-09-21T07:29:15.943Z,100.00
2022-09-21T07:31:45.354Z,100.00
2022-09-21T07:34:11.951Z,100.00
2022-09-21T07:36:38.505Z,100.00
2022-09-21T07:39:05.175Z,100.00
2022-09-21T07:41:31.793Z,100.00
2022-09-21T07:43:58.392Z,100.00
2022-09-21T07:46:25.057Z,100.00
2022-09-21T07:48:54.190Z,100.00
2022-09-21T07:51:20.895Z,100.00
2022-09-21T07:53:47.383Z,100.00
2022-09-21T07:56:17.678Z,100.00
2022-09-21T07:59:03.272Z,100.00
2022-09-21T08:01:29.648Z,100.00
2022-09-21T08:03:57.300Z,100.00
2022-09-21T08:06:25.568Z,100.00
2022-09-21T08:08:56.722Z,100.00
2022-09-21T08:11:25.647Z,98.57
2022-09-21T08:13:53.769Z,98.02
2022-09-21T08:16:20.545Z,89.65
2022-09-21T08:18:47.070Z,84.05
2022-09-21T08:21:14.208Z,82.37
2022-09-21T08:23:42.822Z,82.04
2022-09-21T08:26:17.522Z,81.90
2022-09-21T08:28:44.528Z,80.06
2022-09-21T08:31:11.071Z,80.71
2022-09-21T08:33:37.809Z,80.14
2022-09-21T08:36:05.680Z,81.38
2022-09-21T08:38:34.597Z,87.64
2022-09-21T08:41:02.228Z,88.20
2022-09-21T08:43:42.169Z,91.23
2022-09-21T08:46:15.599Z,92.38
2022-09-21T08:48:47.168Z,92.91
2022-09-21T08:51:17.676Z,90.80
2022-09-21T08:53:46.076Z,93.10
2022-09-21T08:56:13.771Z,97.23
2022-09-21T08:58:41.178Z,94.37
2022-09-21T09:01:31.106Z,92.36
2022-09-21T09:04:15.335Z,92.72
2022-09-21T09:06:52.797Z,87.01
2022-09-21T09:09:59.238Z,86.90
2022-09-21T09:12:38.292Z,85.49
2022-09-21T09:15:16.278Z,82.56
2022-09-21T09:17:58.218Z,80.83
2022-09-21T09:20:55.218Z,80.09
2022-09-21T09:23:47.009Z,76.82
2022-09-21T09:26:19.684Z,76.25
2022-09-21T09:28:55.492Z,74.90
2022-09-21T09:31:25.478Z,69.91
2022-09-21T09:34:18.812Z,70.15
2022-09-21T09:36:58.962Z,71.23
2022-09-21T09:39:28.265Z,71.14
2022-09-21T09:42:15.750Z,69.05
2022-09-21T09:44:45.348Z,66.19
2022-09-21T09:47:11.768Z,60.77
2022-09-21T09:49:56.670Z,57.71
2022-09-21T09:52:23.459Z,58.66
2022-09-21T09:54:50.003Z,62.91
2022-09-21T09:57:24.254Z,63.00
2022-09-21T09:59:54.952Z,61.41
2022-09-21T10:02:28.564Z,62.28
2022-09-21T10:05:06.003Z,66.96
2022-09-21T10:07:43.537Z,64.63
2022-09-21T10:10:29.468Z,63.52
2022-09-21T10:13:03.957Z,64.82
2022-09-21T10:15:30.521Z,58.03
2022-09-21T10:18:01.860Z,56.05
2022-09-21T10:20:31.001Z,56.27
2022-09-21T10:22:59.866Z,57.93
2022-09-21T10:25:26.774Z,55.51
2022-09-21T10:27:53.442Z,53.15
2022-09-21T10:30:33.699Z,52.14
2022-09-21T10:33:00.478Z,51.88
2022-09-21T10:35:27.344Z,51.03
2022-09-21T10:38:22.744Z,43.62
2022-09-21T10:40:49.492Z,46.56
2022-09-21T10:43:31.893Z,46.76
2022-09-21T10:46:00.687Z,47.18
2022-09-21T10:48:28.023Z,44.36
2022-09-21T10:50:56.070Z,45.56
2022-09-21T10:53:34.341Z,42.96
2022-09-21T10:56:17.429Z,43.20
2022-09-21T10:59:24.457Z,42.56
2022-09-21T11:01:53.266Z,42.00
2022-09-21T11:04:27.263Z,40.33
2022-09-21T11:07:18.146Z,41.40
2022-09-21T11:09:50.571Z,41.72
2022-09-21T11:12:31.406Z,40.58
2022-09-21T11:15:19.947Z,41.79
2022-09-21T11:17:53.865Z,42.05
2022-09-21T11:20:47.415Z,42.48
2022-09-21T11:23:18.152Z,42.85
2022-09-21T11:25:53.604Z,44.12
2022-09-21T11:28:29.950Z,44.65
2022-09-21T11:31:20.172Z,43.28
2022-09-21T11:34:38.041Z,45.49
2022-09-21T11:37:30.925Z,46.70
2022-09-21T11:40:25.487Z,46.90
2022-09-21T11:43:33.375Z,45.84
2022-09-21T11:46:01.548Z,47.79
2022-09-21T11:48:46.486Z,48.09
2022-09-21T11:51:40.912Z,48.01
2022-09-21T11:54:26.096Z,48.20
2022-09-21T11:56:58.565Z,48.51
2022-09-21T11:59:46.263Z,49.40
2022-09-21T12:02:31.551Z,49.39
2022-09-21T12:05:00.824Z,49.09
2022-09-21T12:07:52.211Z,46.90
2022-09-21T12:10:37.490Z,45.36
2022-09-21T12:13:06.733Z,45.79
2022-09-21T12:15:48.112Z,46.69
2022-09-21T12:18:30.009Z,45.70
2022-09-21T12:21:05.791Z,43.97
2022-09-21T12:23:42.132Z,43.54
2022-09-21T12:26:09.617Z,43.73
2022-09-21T12:28:39.039Z,44.42
2022-09-21T12:31:12.359Z,45.54
2022-09-21T12:33:48.040Z,46.86
2022-09-21T12:36:18.865Z,46.29
2022-09-21T12:38:48.282Z,46.73
2022-09-21T12:41:34.430Z,48.04
2022-09-21T12:44:13.532Z,44.61
2022-09-21T12:47:09.363Z,45.79
2022-09-21T12:49:45.389Z,44.01
2022-09-21T12:52:22.129Z,44.74
2022-09-21T12:55:17.692Z,46.85
2022-09-21T12:58:17.104Z,49.22
2022-09-21T13:01:06.251Z,52.23
2022-09-21T13:03:41.532Z,52.06
2022-09-21T13:06:28.635Z,53.05
2022-09-21T13:08:55.412Z,55.98
2022-09-21T13:11:22.666Z,55.72
2022-09-21T13:14:01.217Z,56.53
2022-09-21T13:16:30.970Z,60.47
2022-09-21T13:19:03.475Z,60.70
2022-09-21T13:21:32.140Z,60.86
2022-09-21T13:24:07.824Z,60.37
2022-09-21T13:26:40.791Z,62.63
2022-09-21T13:29:19.678Z,62.68
2022-09-21T13:32:01.106Z,60.96
2022-09-21T13:34:35.159Z,61.47
2022-09-21T13:37:20.013Z,64.21
2022-09-21T13:40:01.424Z,61.51
2022-09-21T13:42:30.919Z,60.17
2022-09-21T13:45:21.396Z,59.41
2022-09-21T13:47:54.272Z,60.61
2022-09-21T13:50:23.647Z,60.92
2022-09-21T13:52:53.349Z,61.05
2022-09-21T13:55:41.856Z,60.52
2022-09-21T13:58:19.506Z,59.51
2022-09-21T14:00:59.110Z,56.23
2022-09-21T14:03:38.700Z,52.11
2022-09-21T14:06:12.246Z,47.82
2022-09-21T14:09:01.261Z,47.53
2022-09-21T14:11:36.496Z,46.17
2022-09-21T14:14:15.227Z,45.42
2022-09-21T14:16:47.846Z,45.38
2022-09-21T14:19:17.431Z,44.57
2022-09-21T14:22:05.397Z,42.53
2022-09-21T14:24:38.101Z,42.26
2022-09-21T14:27:18.371Z,40.29
2022-09-21T14:29:53.153Z,39.91
2022-09-21T14:32:25.287Z,39.00
2022-09-21T14:34:57.106Z,38.43
2022-09-21T14:37:33.925Z,39.42
2022-09-21T14:40:05.926Z,39.31
2022-09-21T14:42:32.913Z,40.09
2022-09-21T14:45:01.334Z,43.27
2022-09-21T14:47:36.701Z,45.87
2022-09-21T14:50:08.106Z,47.60
2022-09-21T14:52:42.261Z,48.19
2022-09-21T14:55:15.524Z,51.45
2022-09-21T14:58:27.740Z,51.55
2022-09-21T15:00:54.682Z,53.09
2022-09-21T15:03:38.947Z,51.56
2022-09-21T15:06:48.567Z,52.19
2022-09-21T15:09:58.019Z,52.90
2022-09-21T15:12:32.217Z,51.96
2022-09-21T15:15:27.508Z,52.78
2022-09-21T15:17:59.770Z,54.04
2022-09-21T15:20:28.318Z,63.34
2022-09-21T15:22:59.177Z,69.66
2022-09-21T15:25:31.922Z,74.39
2022-09-21T15:27:59.975Z,79.50
2022-09-21T15:30:28.615Z,80.01
2022-09-21T15:33:00.463Z,82.08
2022-09-21T15:35:28.998Z,84.19
2022-09-21T15:37:56.865Z,84.93
2022-09-21T15:40:29.974Z,86.39
2022-09-21T15:43:06.518Z,88.04
2022-09-21T15:46:00.968Z,88.72
2022-09-21T15:48:36.461Z,89.56
2022-09-21T15:51:09.615Z,88.89
2022-09-21T15:53:51.578Z,90.57
2022-09-21T15:56:20.509Z,89.97
2022-09-21T15:58:49.887Z,93.09
2022-09-21T16:01:20.294Z,91.63
2022-09-21T16:03:47.895Z,91.11
2022-09-21T16:06:29.476Z,91.85
2022-09-21T16:08:55.983Z,90.68
2022-09-21T16:11:29.004Z,88.31
2022-09-21T16:14:18.516Z,87.40
2022-09-21T16:17:09.666Z,85.89
2022-09-21T16:19:43.752Z,80.29
2022-09-21T16:22:15.159Z,78.84
2022-09-21T16:25:01.221Z,78.42
2022-09-21T16:27:32.585Z,79.06
2022-09-21T16:30:01.194Z,80.36
2022-09-21T16:32:31.945Z,81.31
2022-09-21T16:35:31.767Z,81.95
2022-09-21T16:37:59.003Z,83.22
2022-09-21T16:40:27.490Z,84.34
2022-09-21T16:42:54.811Z,84.88
2022-09-21T16:45:28.428Z,86.03
2022-09-21T16:47:55.024Z,85.46
2022-09-21T16:50:21.533Z,85.86
2022-09-21T16:52:51.496Z,83.55
2022-09-21T16:55:25.531Z,84.00
2022-09-21T16:57:54.924Z,82.81
2022-09-21T17:00:22.178Z,84.62
2022-09-21T17:02:49.346Z,83.41
2022-09-21T17:05:18.078Z,84.21
2022-09-21T17:07:58.351Z,85.20
2022-09-21T17:10:29.148Z,86.26
2022-09-21T17:12:59.231Z,87.89
2022-09-21T17:15:26.446Z,89.57
2022-09-21T17:17:53.124Z,89.96
2022-09-21T17:20:29.395Z,93.42
2022-09-21T17:22:56.091Z,93.26
2022-09-21T17:25:22.565Z,92.92
2022-09-21T17:27:49.070Z,92.30
2022-09-21T17:30:18.531Z,94.37
2022-09-21T17:32:47.761Z,96.34
2022-09-21T17:35:18.876Z,97.71
2022-09-21T17:37:45.969Z,100.00
2022-09-21T17:40:13.238Z,100.00
2022-09-21T17:42:43.092Z,100.00
2022-09-21T17:45:14.175Z,100.00
2022-09-21T17:47:41.222Z,100.00
2022-09-21T17:50:13.517Z,100.00
2022-09-21T17:53:00.266Z,100.00
2022-09-21T17:55:27.232Z,100.00
2022-09-21T17:58:00.776Z,100.00
2022-09-21T18:00:43.078Z,100.00
2022-09-21T18:03:21.799Z,100.00
2022-09-21T18:05:50.790Z,100.00
2022-09-21T18:08:18.224Z,100.00
2022-09-21T18:10:52.967Z,100.00
2022-09-21T18:13:26.774Z,100.00
2022-09-21T18:16:03.019Z,100.00
2022-09-21T18:18:45.491Z,100.00
2022-09-21T18:21:23.198Z,100.00
2022-09-21T18:24:22.691Z,100.00
2022-09-21T18:26:52.306Z,100.00
2022-09-21T18:29:46.252Z,100.00
2022-09-21T18:32:41.097Z,100.00
2022-09-21T18:35:37.838Z,100.00
2022-09-21T18:38:28.878Z,100.00
2022-09-21T18:41:23.113Z,100.00
2022-09-21T18:43:49.628Z,100.00
2022-09-21T18:46:16.088Z,100.00
2022-09-21T18:48:54.615Z,100.00
2022-09-21T18:51:32.105Z,100.00
2022-09-21T18:54:00.140Z,100.00
2022-09-21T18:56:37.063Z,100.00
2022-09-21T18:59:04.243Z,100.00
2022-09-21T19:01:33.890Z,100.00
2022-09-21T19:04:01.382Z,100.00
2022-09-21T19:06:30.617Z,100.00
2022-09-21T19:09:26.103Z,100.00
2022-09-21T19:12:13.460Z,100.00
2022-09-21T19:14:50.067Z,100.00
2022-09-21T19:17:38.483Z,100.00
2022-09-21T19:20:31.198Z,100.00
2022-09-21T19:23:03.532Z,100.00
2022-09-21T19:25:35.100Z,100.00
2022-09-21T19:28:35.066Z,100.00
2022-09-21T19:31:05.348Z,100.00
2022-09-21T19:33:49.498Z,100.00
2022-09-21T19:36:17.598Z,100.00
2022-09-21T19:38:44.333Z,100.00
2022-09-21T19:41:18.921Z,100.00
2022-09-21T19:44:12.046Z,100.00
2022-09-21T19:47:06.801Z,100.00
2022-09-21T19:49:50.322Z,100.00
2022-09-21T19:52:18.763Z,100.00
2022-09-21T19:55:04.464Z,100.00
2022-09-21T19:57:49.232Z,100.00
2022-09-21T20:00:17.533Z,100.00
2022-09-21T20:03:05.745Z,100.00
2022-09-21T20:05:50.819Z,100.00
2022-09-21T20:08:27.607Z,100.00
2022-09-21T20:11:30.313Z,100.00
2022-09-21T20:14:00.121Z,100.00
2022-09-21T20:20:22.728Z,100.00
2022-09-21T20:22:49.645Z,100.00
2022-09-21T20:25:24.967Z,100.00
2022-09-21T20:27:52.514Z,100.00
2022-09-21T20:30:21.598Z,100.00
2022-09-21T20:32:54.660Z,100.00
2022-09-21T20:35:24.109Z,100.00
2022-09-21T20:37:51.784Z,100.00
2022-09-21T20:40:20.408Z,100.00
2022-09-21T20:42:47.152Z,100.00
2022-09-21T20:45:14.033Z,100.00
2022-09-21T20:47:40.561Z,100.00
2022-09-21T20:50:11.609Z,100.00
2022-09-21T20:52:41.345Z,100.00
2022-09-21T20:55:09.692Z,100.00
2022-09-21T20:57:37.164Z,100.00
2022-09-21T21:00:08.835Z,100.00
2022-09-21T21:02:35.930Z,100.00
2022-09-21T21:05:02.898Z,100.00
2022-09-21T21:07:30.792Z,100.00
2022-09-21T21:09:58.758Z,100.00
2022-09-21T21:12:25.905Z,100.00
2022-09-21T21:14:52.960Z,100.00
2022-09-21T21:17:19.471Z,100.00
2022-09-21T21:19:45.934Z,100.00
2022-09-21T21:22:13.353Z,100.00
2022-09-21T21:24:40.881Z,100.00
2022-09-21T21:27:12.218Z,100.00
2022-09-21T21:29:38.695Z,100.00
2022-09-21T21:32:05.620Z,100.00
2022-09-21T21:34:32.141Z,100.00
2022-09-21T21:36:58.822Z,100.00
2022-09-21T21:39:25.295Z,100.00
2022-09-21T21:41:51.918Z,100.00
2022-09-21T21:44:18.406Z,100.00
2022-09-21T21:46:45.030Z,100.00
2022-09-21T21:49:11.551Z,100.00
2022-09-21T21:51:38.006Z,100.00
2022-09-21T21:54:04.539Z,100.00
2022-09-21T21:56:31.113Z,100.00
2022-09-21T21:58:57.567Z,100.00
2022-09-21T22:01:26.745Z,100.00
2022-09-21T22:03:55.060Z,100.00
2022-09-21T22:06:21.956Z,100.00
2022-09-21T22:08:49.111Z,100.00
2022-09-21T22:11:17.663Z,100.00
2022-09-21T22:13:45.603Z,100.00
2022-09-21T22:16:17.274Z,100.00
2022-09-21T22:18:44.134Z,100.00
2022-09-21T22:21:10.524Z,100.00
2022-09-21T22:23:38.133Z,100.00
2022-09-21T22:26:09.083Z,100.00
2022-09-21T22:28:36.740Z,100.00
2022-09-21T22:31:04.639Z,100.00
2022-09-21T22:33:34.874Z,100.00
2022-09-21T22:36:04.876Z,100.00
2022-09-21T22:38:32.799Z,100.00
2022-09-21T22:41:08.394Z,100.00
2022-09-21T22:43:35.292Z,100.00
2022-09-21T22:46:02.669Z,100.00
2022-09-21T22:48:29.242Z,100.00
2022-09-21T22:50:55.791Z,100.00
2022-09-21T22:53:23.292Z,100.00
2022-09-21T22:56:20.293Z,100.00
2022-09-21T22:58:48.856Z,100.00
2022-09-21T23:01:19.190Z,100.00
2022-09-21T23:03:47.595Z,100.00
2022-09-21T23:06:17.355Z,100.00
2022-09-21T23:08:48.948Z,100.00
2022-09-21T23:11:19.561Z,100.00
2022-09-21T23:13:46.647Z,100.00
2022-09-21T23:16:14.205Z,100.00
2022-09-21T23:18:42.309Z,100.00
2022-09-21T23:21:12.592Z,100.00
2022-09-21T23:23:39.335Z,100.00
2022-09-21T23:26:18.385Z,100.00
2022-09-21T23:28:50.916Z,100.00
2022-09-21T23:31:18.048Z,100.00
2022-09-21T23:33:47.235Z,100.00
2022-09-21T23:36:15.934Z,100.00
2022-09-21T23:38:43.049Z,100.00
2022-09-21T23:41:15.419Z,100.00
2022-09-21T23:43:43.320Z,100.00
2022-09-21T23:46:12.626Z,100.00
2022-09-21T23:48:40.547Z,100.00
2022-09-21T23:51:07.492Z,100.00
2022-09-21T23:53:34.751Z,100.00
2022-09-21T23:56:01.667Z,100.00
2022-09-21T23:58:28.347Z,100.00
